Time;durP1;ratioP1;P1;durP2;ratioP2;P2;SDS_P1;SDS_P2;PMS_P1;PMS_P2;Temp;Humidity;BMP_temperature;BMP_pressure;BME280_temperature;BME280_humidity;BME280_pressure;Samples;Min_cycle;Max_cycle;Signal;HPM_P1;HPM_P2
2023/04/26 00:04:50;;;;;;;7.13;3.60;;;13.10;99.90;;;;;;12851836;23;20210;-86
2023/04/26 00:09:53;;;;;;;6.43;3.00;;;14.00;99.90;;;;;;12852858;23;20666;-86
2023/04/26 00:14:55;;;;;;;7.65;3.00;;;13.60;99.90;;;;;;12853879;23;20504;-86
2023/04/26 00:19:58;;;;;;;8.27;3.17;;;13.60;99.90;;;;;;12854267;23;20175;-86
2023/04/26 00:25:00;;;;;;;8.15;3.47;;;13.30;99.90;;;;;;12851580;23;20213;-86
2023/04/26 00:30:04;;;;;;;6.07;3.28;;;13.80;99.90;;;;;;12855444;23;20187;-86
2023/04/26 00:35:07;;;;;;;6.90;3.28;;;13.40;99.90;;;;;;12857516;23;20811;-86
2023/04/26 00:40:10;;;;;;;4.13;2.50;;;13.50;99.90;;;;;;12857558;23;20199;-86
2023/04/26 00:45:12;;;;;;;8.25;3.47;;;14.30;99.90;;;;;;12855672;23;20182;-86
2023/04/26 00:50:15;;;;;;;5.38;2.72;;;14.40;99.90;;;;;;12855289;23;20191;-86
2023/04/26 00:55:22;;;;;;;3.95;2.83;;;15.60;99.90;;;;;;12857258;23;20225;-86
2023/04/26 01:00:24;;;;;;;3.83;2.33;;;14.90;99.90;;;;;;12857165;23;20555;-86
2023/04/26 01:05:27;;;;;;;4.68;2.97;;;15.40;99.90;;;;;;12854053;23;20237;-86
2023/04/26 01:10:32;;;;;;;7.60;2.63;;;14.90;99.90;;;;;;12856090;23;20569;-86
2023/04/26 01:15:35;;;;;;;10.63;3.43;;;14.70;99.90;;;;;;12856552;23;20513;-86
2023/04/26 01:20:38;;;;;;;4.90;2.40;;;14.00;99.90;;;;;;12853863;23;20241;-86
2023/04/26 01:25:41;;;;;;;3.47;2.67;;;13.50;99.90;;;;;;12854263;23;20494;-86
2023/04/26 01:30:43;;;;;;;4.87;2.53;;;13.50;99.90;;;;;;12855751;23;20464;-86
2023/04/26 01:35:46;;;;;;;9.18;3.17;;;13.70;99.90;;;;;;12862092;23;20163;-86
2023/04/26 01:40:48;;;;;;;3.92;2.22;;;13.80;99.90;;;;;;12856315;23;20198;-86
2023/04/26 01:45:51;;;;;;;10.03;2.40;;;13.70;99.90;;;;;;12854932;23;20187;-86
2023/04/26 01:51:06;;;;;;;3.63;2.63;;;13.50;99.90;;;;;;12859999;23;20211;-86
2023/04/26 01:56:09;;;;;;;3.00;1.87;;;13.50;99.90;;;;;;12855307;23;20167;-87
2023/04/26 02:01:12;;;;;;;3.60;2.43;;;13.30;99.90;;;;;;12853891;23;20186;-86
2023/04/26 02:06:14;;;;;;;3.77;2.50;;;13.10;99.90;;;;;;12854709;23;20175;-86
2023/04/26 02:11:17;;;;;;;4.27;2.50;;;13.80;99.90;;;;;;12851517;23;20199;-87
2023/04/26 02:16:20;;;;;;;3.73;2.37;;;12.80;99.90;;;;;;12854181;23;20221;-87
2023/04/26 02:21:23;;;;;;;5.23;2.10;;;13.00;99.90;;;;;;12851711;23;20187;-87
2023/04/26 02:26:26;;;;;;;5.43;2.23;;;13.60;99.90;;;;;;12854879;23;20209;-86
2023/04/26 02:31:28;;;;;;;4.07;2.00;;;13.30;99.90;;;;;;12855140;23;21101;-87
2023/04/26 02:36:32;;;;;;;6.13;2.42;;;12.90;99.90;;;;;;12853719;23;20167;-86
2023/04/26 02:41:34;;;;;;;4.60;2.47;;;12.50;99.90;;;;;;12852508;23;20211;-87
2023/04/26 02:46:37;;;;;;;3.70;1.77;;;13.10;99.90;;;;;;12852187;23;20214;-86
2023/04/26 02:51:40;;;;;;;4.87;2.20;;;13.80;99.90;;;;;;12852007;23;20191;-87
2023/04/26 02:56:43;;;;;;;4.57;1.67;;;13.90;99.90;;;;;;12851894;23;20174;-87
2023/04/26 03:01:45;;;;;;;3.87;2.10;;;14.00;99.90;;;;;;12853885;23;20624;-87
2023/04/26 03:06:48;;;;;;;6.70;2.53;;;14.50;99.90;;;;;;12852223;23;20238;-86
2023/04/26 03:11:51;;;;;;;2.40;1.83;;;14.40;99.90;;;;;;12827348;23;20203;-87
2023/04/26 03:16:55;;;;;;;2.40;1.93;;;13.80;99.90;;;;;;12851396;23;20213;-86
2023/04/26 03:21:59;;;;;;;3.23;2.10;;;13.60;99.90;;;;;;12851212;23;20191;-86
2023/04/26 03:27:02;;;;;;;6.40;2.30;;;13.00;99.90;;;;;;12852269;23;20230;-87
2023/04/26 03:32:05;;;;;;;5.93;2.00;;;13.10;99.90;;;;;;12854504;23;20233;-86
2023/04/26 03:37:08;;;;;;;5.03;2.13;;;13.80;99.90;;;;;;12850732;23;20205;-86
2023/04/26 03:42:12;;;;;;;3.80;1.80;;;14.10;99.90;;;;;;12851248;23;20237;-87
2023/04/26 03:47:15;;;;;;;3.30;2.13;;;14.50;99.90;;;;;;12852226;23;20495;-86
2023/04/26 03:52:18;;;;;;;4.43;2.27;;;14.50;99.90;;;;;;12854607;23;20187;-86
2023/04/26 03:57:22;;;;;;;8.88;2.05;;;14.70;99.90;;;;;;12853585;23;20202;-86
2023/04/26 04:02:25;;;;;;;4.13;2.20;;;13.90;96.70;;;;;;12853247;23;20179;-87
2023/04/26 04:07:28;;;;;;;3.40;2.20;;;13.90;99.90;;;;;;12851208;23;20233;-86
2023/04/26 04:12:30;;;;;;;6.00;1.80;;;14.00;99.90;;;;;;12851782;23;20211;-86
2023/04/26 04:17:33;;;;;;;4.27;1.87;;;13.70;99.90;;;;;;12850131;23;20260;-86
2023/04/26 04:22:39;;;;;;;4.57;2.03;;;13.80;99.90;;;;;;12851257;23;20175;-87
2023/04/26 04:27:42;;;;;;;5.27;1.97;;;13.50;99.90;;;;;;12852046;23;20183;-87
2023/04/26 04:32:45;;;;;;;5.57;2.20;;;13.10;99.90;;;;;;12850484;23;20199;-87
2023/04/26 04:37:50;;;;;;;4.23;1.60;;;13.60;99.90;;;;;;12850536;23;20293;-87
2023/04/26 04:42:54;;;;;;;5.37;2.30;;;14.30;99.90;;;;;;12826211;23;20236;-87
2023/04/26 04:48:00;;;;;;;2.63;1.57;;;14.50;99.90;;;;;;12850861;23;20206;-87
2023/04/26 04:53:03;;;;;;;3.87;1.60;;;14.00;99.90;;;;;;12853430;23;20187;-87
2023/04/26 04:58:06;;;;;;;5.93;2.07;;;13.70;97.70;;;;;;12851798;23;20245;-87
2023/04/26 05:03:09;;;;;;;4.17;1.97;;;14.20;99.90;;;;;;12850462;23;20258;-86
2023/04/26 05:08:12;;;;;;;6.43;1.83;;;13.70;99.90;;;;;;12848904;23;20226;-87
2023/04/26 05:13:14;;;;;;;1.53;1.20;;;14.10;97.70;;;;;;12850555;23;20203;-86
2023/04/26 05:18:18;;;;;;;3.63;1.40;;;15.20;99.90;;;;;;12853768;23;20183;-84
2023/04/26 05:23:21;;;;;;;10.30;1.30;;;15.10;99.90;;;;;;12854109;23;20210;-85
2023/04/26 05:28:24;;;;;;;7.03;2.37;;;8.60;70.30;;;;;;12854196;23;20856;-86
2023/04/26 05:33:44;;;;;;;9.30;2.07;;;6.70;92.80;;;;;;12853297;23;20199;-86
2023/04/26 05:39:04;;;;;;;5.90;1.40;;;8.70;99.90;;;;;;12853505;23;20680;-86
2023/04/26 05:44:07;;;;;;;4.77;1.20;;;8.90;99.90;;;;;;12854775;23;20174;-86
2023/04/26 05:49:09;;;;;;;6.40;0.93;;;10.50;99.90;;;;;;12853157;23;20574;-86
2023/04/26 05:54:12;;;;;;;3.63;1.07;;;;;;;;;;12856680;23;20187;-86
2023/04/26 05:59:15;;;;;;;3.13;1.03;;;14.40;91.90;;;;;;12853806;23;20179;-86
2023/04/26 06:04:18;;;;;;;5.13;1.70;;;13.40;90.90;;;;;;12852708;23;20183;-86
2023/04/26 06:09:34;;;;;;;4.47;0.90;;;14.40;96.50;;;;;;12853615;23;20236;-86
2023/04/26 06:14:38;;;;;;;4.53;1.27;;;14.40;93.20;;;;;;12851932;23;20207;-86
2023/04/26 06:19:45;;;;;;;2.10;0.90;;;14.10;95.30;;;;;;12852669;23;20523;-86
2023/04/26 06:24:48;;;;;;;2.73;1.10;;;;;;;;;;12854797;23;20167;-86
2023/04/26 06:29:51;;;;;;;3.77;1.10;;;14.70;99.90;;;;;;12852412;23;20241;-86
2023/04/26 06:34:55;;;;;;;3.13;1.33;;;14.60;99.90;;;;;;12852021;23;20277;-86
2023/04/26 06:40:01;;;;;;;1.37;1.20;;;;;;;;;;12854282;23;20230;-86
2023/04/26 06:45:04;;;;;;;1.27;0.60;;;;;;;;;;12853278;23;20581;-86
2023/04/26 06:50:09;;;;;;;3.53;1.00;;;14.20;99.90;;;;;;12851048;23;20179;-87
2023/04/26 06:55:12;;;;;;;1.07;0.60;;;;;;;;;;12851622;23;20195;-86
2023/04/26 07:00:14;;;;;;;9.83;1.93;;;15.90;95.00;;;;;;12852035;23;20502;-86
2023/04/26 07:05:17;;;;;;;5.60;1.00;;;14.90;44.00;;;;;;12850906;23;20222;-86
2023/04/26 07:10:20;;;;;;;6.20;1.03;;;14.70;95.30;;;;;;12852760;23;20225;-88
2023/04/26 07:15:23;;;;;;;3.37;0.83;;;15.70;86.40;;;;;;12852699;23;20199;-86
2023/04/26 07:20:26;;;;;;;0.57;0.23;;;15.60;93.40;;;;;;12852211;23;20203;-86
2023/04/26 07:25:28;;;;;;;1.13;0.67;;;16.20;93.90;;;;;;12852065;23;20210;-86
2023/04/26 07:30:31;;;;;;;1.43;1.03;;;16.50;91.40;;;;;;12852712;23;20217;-86
2023/04/26 07:35:36;;;;;;;1.30;0.77;;;16.70;90.00;;;;;;12852176;23;20187;-86
2023/04/26 07:40:40;;;;;;;4.00;1.00;;;16.70;90.90;;;;;;12855892;23;20231;-86
2023/04/26 07:45:42;;;;;;;4.23;1.43;;;16.50;86.70;;;;;;12852726;23;20171;-86
2023/04/26 07:50:45;;;;;;;2.47;1.20;;;15.70;68.90;;;;;;12851708;23;20186;-86
2023/04/26 07:55:50;;;;;;;5.70;1.23;;;16.20;89.50;;;;;;12849773;23;20187;-86
2023/04/26 08:00:53;;;;;;;3.30;0.90;;;15.30;51.40;;;;;;12851107;23;20166;-86
2023/04/26 08:05:57;;;;;;;4.47;1.23;;;14.90;82.60;;;;;;12848626;23;20187;-86
2023/04/26 08:11:00;;;;;;;3.80;1.30;;;14.70;59.10;;;;;;12851524;23;20183;-86
2023/04/26 08:16:03;;;;;;;8.53;1.60;;;14.60;91.30;;;;;;12852225;23;20179;-87
2023/04/26 08:21:06;;;;;;;3.70;1.40;;;14.30;87.60;;;;;;12850132;23;20179;-87
2023/04/26 08:26:08;;;;;;;1.70;1.10;;;15.10;75.40;;;;;;12850120;23;20179;-87
2023/04/26 08:31:11;;;;;;;1.17;0.67;;;14.80;94.20;;;;;;12849365;23;20182;-87
2023/04/26 08:36:14;;;;;;;19.17;7.53;;;14.60;87.50;;;;;;12851340;23;20238;-87
2023/04/26 08:41:21;;;;;;;1.53;0.90;;;13.90;58.20;;;;;;12849975;23;20510;-87
2023/04/26 08:46:27;;;;;;;0.70;0.50;;;13.30;93.60;;;;;;12850264;23;20214;-87
2023/04/26 08:51:32;;;;;;;12.30;3.70;;;13.70;84.00;;;;;;12857077;23;20183;-85
2023/04/26 08:56:35;;;;;;;8.47;2.23;;;13.20;34.20;;;;;;12854428;23;20167;-87
2023/04/26 09:01:43;;;;;;;24.53;6.43;;;13.00;71.60;;;;;;12854129;23;20175;-86
2023/04/26 09:06:48;;;;;;;6.33;2.33;;;12.20;34.60;;;;;;12855188;23;20174;-87
2023/04/26 09:12:02;;;;;;;3.40;0.93;;;13.20;67.80;;;;;;12850124;23;20179;-87
2023/04/26 09:17:05;;;;;;;1.63;0.67;;;12.20;80.60;;;;;;12851723;23;20175;-87
2023/04/26 09:22:08;;;;;;;4.13;1.37;;;13.80;96.40;;;;;;12850406;23;20195;-87
2023/04/26 09:27:11;;;;;;;5.33;1.20;;;13.80;48.10;;;;;;12848288;23;20187;-87
2023/04/26 09:32:13;;;;;;;6.20;1.63;;;14.90;79.50;;;;;;12849852;23;20186;-87
2023/04/26 09:37:16;;;;;;;9.67;1.73;;;14.20;46.30;;;;;;12848709;23;20591;-87
2023/04/26 09:42:19;;;;;;;1.80;0.83;;;15.00;91.70;;;;;;12848450;23;20649;-87
2023/04/26 09:47:21;;;;;;;4.70;1.10;;;16.00;92.50;;;;;;12850445;23;20165;-87
2023/04/26 09:52:24;;;;;;;5.83;1.17;;;15.90;74.00;;;;;;12851600;23;20182;-87
2023/04/26 09:57:27;;;;;;;1.20;0.70;;;16.20;78.70;;;;;;12856992;23;20171;-86
2023/04/26 10:02:30;;;;;;;5.97;1.53;;;16.10;92.40;;;;;;12850556;23;20819;-87
2023/04/26 10:07:33;;;;;;;2.83;1.20;;;15.60;43.20;;;;;;12850876;23;20228;-87
2023/04/26 10:12:36;;;;;;;1.83;0.83;;;15.00;43.80;;;;;;12871305;23;20190;-86
2023/04/26 10:17:39;;;;;;;2.63;1.13;;;15.20;53.40;;;;;;12853833;23;20171;-86
2023/04/26 10:22:53;;;;;;;10.00;1.43;;;13.10;63.00;;;;;;12852347;23;20589;-86
2023/04/26 10:27:56;;;;;;;2.40;1.10;;;11.90;50.00;;;;;;12853096;23;20171;-87
2023/04/26 10:32:58;;;;;;;1.50;0.83;;;12.10;95.10;;;;;;12852557;23;20201;-86
2023/04/26 10:38:02;;;;;;;3.37;1.87;;;12.10;98.00;;;;;;12853543;23;20198;-86
2023/04/26 10:43:18;;;;;;;6.07;1.67;;;12.20;56.20;;;;;;12851450;23;20542;-87
2023/04/26 10:48:27;;;;;;;1.97;1.20;;;12.90;76.40;;;;;;12851821;23;20182;-87
2023/04/26 10:53:32;;;;;;;3.30;1.20;;;14.60;99.30;;;;;;12854293;23;20226;-94
2023/04/26 10:58:34;;;;;;;4.10;1.37;;;15.60;51.10;;;;;;12865854;23;20170;-93
2023/04/26 11:03:37;;;;;;;2.77;0.77;;;15.60;32.90;;;;;;12828308;23;20238;-92
2023/04/26 11:08:42;;;;;;;1.87;0.90;;;15.60;40.80;;;;;;12856116;23;20185;-93
2023/04/26 11:13:45;;;;;;;3.23;0.97;;;15.10;45.60;;;;;;12853469;23;20195;-93
2023/04/26 11:18:48;;;;;;;4.97;1.40;;;16.10;45.10;;;;;;12852862;23;20171;-92
2023/04/26 11:23:54;;;;;;;1.00;0.47;;;15.90;39.90;;;;;;12852673;23;20697;-94
2023/04/26 11:28:57;;;;;;;32.40;2.40;;;15.20;44.40;;;;;;12853579;23;20166;-88
2023/04/26 11:34:04;;;;;;;7.50;1.33;;;14.40;29.80;;;;;;12865772;23;20190;-87
2023/04/26 11:39:06;;;;;;;3.03;1.27;;;15.40;29.60;;;;;;12853322;23;20601;-86
2023/04/26 11:44:11;;;;;;;5.83;1.40;;;15.40;25.60;;;;;;12852976;23;20228;-87
2023/04/26 11:49:16;;;;;;;7.37;2.80;;;15.40;25.40;;;;;;12852452;23;20709;-87
2023/04/26 11:54:32;;;;;;;3.97;2.03;;;15.00;29.10;;;;;;12853455;23;20318;-87
2023/04/26 11:59:35;;;;;;;1.90;0.90;;;14.50;24.70;;;;;;12850547;23;20242;-87
2023/04/26 12:04:39;;;;;;;1.93;1.17;;;15.30;33.00;;;;;;12850806;23;20187;-87
2023/04/26 12:09:42;;;;;;;2.10;1.40;;;16.40;33.00;;;;;;12852165;23;20195;-87
2023/04/26 12:14:46;;;;;;;2.00;0.77;;;15.90;31.00;;;;;;12850403;23;20273;-87
2023/04/26 12:19:49;;;;;;;7.40;1.20;;;16.70;34.10;;;;;;12850045;23;20179;-86
2023/04/26 12:25:04;;;;;;;4.10;1.33;;;15.90;30.40;;;;;;12850043;23;20801;-87
2023/04/26 12:30:07;;;;;;;4.33;1.17;;;16.00;31.10;;;;;;12873680;23;20174;-87
2023/04/26 12:35:10;;;;;;;3.17;1.63;;;16.70;31.20;;;;;;12855292;23;20611;-87
2023/04/26 12:40:12;;;;;;;4.73;1.50;;;15.80;18.30;;;;;;12853859;23;20226;-87
2023/04/26 12:45:17;;;;;;;1.90;0.87;;;14.50;23.10;;;;;;12851861;23;20245;-92
2023/04/26 12:50:20;;;;;;;5.10;2.00;;;15.00;26.10;;;;;;12857166;23;20488;-92
2023/04/26 12:55:23;;;;;;;7.43;2.30;;;15.00;17.10;;;;;;12857026;23;20511;-92
2023/04/26 13:00:26;;;;;;;3.27;0.80;;;14.90;17.40;;;;;;12856357;23;20187;-92
2023/04/26 13:05:31;;;;;;;0.80;0.43;;;14.80;26.20;;;;;;12854016;23;20219;-93
2023/04/26 13:10:33;;;;;;;2.13;1.07;;;15.00;24.80;;;;;;12854166;23;20183;-93
2023/04/26 13:15:36;;;;;;;5.43;1.10;;;15.70;26.20;;;;;;12853823;23;20203;-92
2023/04/26 13:20:38;;;;;;;2.13;0.80;;;15.90;22.70;;;;;;12855008;23;20676;-92
2023/04/26 13:25:41;;;;;;;4.30;1.17;;;16.10;26.20;;;;;;12856520;23;20179;-92
2023/04/26 13:30:44;;;;;;;5.47;1.67;;;16.40;24.90;;;;;;12856514;23;20898;-93
2023/04/26 13:35:46;;;;;;;3.60;3.07;;;16.20;17.80;;;;;;12857216;23;20206;-92
2023/04/26 13:40:49;;;;;;;1.30;1.20;;;16.00;18.80;;;;;;12853453;23;20545;-92
2023/04/26 13:45:51;;;;;;;0.97;0.83;;;15.60;20.30;;;;;;12854982;23;20183;-92
2023/04/26 13:50:55;;;;;;;5.23;1.33;;;16.00;26.30;;;;;;12852787;23;20183;-92
2023/04/26 13:55:57;;;;;;;3.07;2.13;;;16.40;18.50;;;;;;12855264;23;20245;-93
2023/04/26 14:01:01;;;;;;;5.10;1.20;;;16.00;23.70;;;;;;12853386;23;20226;-92
2023/04/26 14:06:03;;;;;;;1.57;1.37;;;16.40;24.50;;;;;;12854906;23;20559;-92
2023/04/26 14:11:07;;;;;;;1.33;0.80;;;15.90;22.00;;;;;;12855569;23;20206;-93
2023/04/26 14:16:09;;;;;;;1.27;1.00;;;16.10;26.20;;;;;;12853132;23;20198;-92
2023/04/26 14:21:12;;;;;;;2.50;1.20;;;16.40;25.40;;;;;;12855926;23;20229;-93
2023/04/26 14:26:15;;;;;;;2.63;1.40;;;16.20;24.20;;;;;;12855651;23;20557;-86
2023/04/26 14:31:18;;;;;;;2.13;0.80;;;16.40;19.00;;;;;;12851065;23;20569;-86
2023/04/26 14:36:21;;;;;;;3.13;1.17;;;16.40;17.10;;;;;;12852808;23;20203;-87
2023/04/26 14:41:24;;;;;;;6.23;1.27;;;15.80;17.80;;;;;;12850719;23;20203;-86
2023/04/26 14:46:26;;;;;;;7.33;1.73;;;16.40;17.40;;;;;;12870801;23;20198;-87
2023/04/26 14:51:28;;;;;;;1.97;1.00;;;16.60;14.90;;;;;;12860675;23;20178;-87
2023/04/26 14:56:34;;;;;;;6.30;1.30;;;16.20;19.80;;;;;;12853644;23;20230;-86
2023/04/26 15:01:37;;;;;;;0.60;0.60;;;16.10;19.40;;;;;;12869441;23;20198;-87
2023/04/26 15:06:40;;;;;;;2.73;1.17;;;17.00;12.20;;;;;;12852804;23;20171;-87
2023/04/26 15:11:42;;;;;;;5.67;1.70;;;17.20;9.40;;;;;;12853292;23;20228;-87
2023/04/26 15:16:45;;;;;;;1.73;0.60;;;17.50;10.80;;;;;;12854005;23;20194;-87
2023/04/26 15:21:48;;;;;;;2.77;1.23;;;17.10;13.10;;;;;;12851647;23;20242;-87
2023/04/26 15:26:50;;;;;;;4.43;1.17;;;16.40;11.80;;;;;;12854049;23;20214;-87
2023/04/26 15:31:53;;;;;;;1.90;1.20;;;17.20;14.50;;;;;;12853937;23;20633;-87
2023/04/26 15:36:59;;;;;;;1.17;0.90;;;16.60;13.50;;;;;;12852314;23;20270;-87
2023/04/26 15:42:03;;;;;;;4.97;1.88;;;17.40;15.10;;;;;;12852575;23;20655;-87
2023/04/26 15:47:05;;;;;;;3.85;1.65;;;17.90;12.40;;;;;;12851371;23;20183;-87
2023/04/26 15:52:08;;;;;;;4.73;1.70;;;18.00;12.70;;;;;;12854299;23;20171;-87
2023/04/26 15:57:11;;;;;;;4.75;1.23;;;17.20;14.00;;;;;;12853898;23;20230;-87
2023/04/26 16:02:13;;;;;;;3.55;1.63;;;16.50;12.90;;;;;;12851553;23;20178;-87
2023/04/26 16:07:17;;;;;;;2.05;1.30;;;17.10;18.20;;;;;;12851228;23;20187;-87
2023/04/26 16:12:20;;;;;;;4.20;1.65;;;17.80;18.00;;;;;;12851685;23;20634;-87
2023/04/26 16:17:22;;;;;;;2.83;1.27;;;17.70;14.30;;;;;;12852158;23;20203;-87
2023/04/26 16:22:25;;;;;;;5.63;1.30;;;17.80;19.20;;;;;;12851154;23;20183;-87
2023/04/26 16:27:27;;;;;;;5.17;1.60;;;17.70;17.40;;;;;;12853701;23;20183;-87
2023/04/26 16:32:30;;;;;;;7.83;2.97;;;11.50;15.80;;;;;;12851885;23;20578;-87
2023/04/26 16:37:32;;;;;;;6.10;2.47;;;11.50;16.30;;;;;;12850573;23;20535;-87
2023/04/26 16:42:35;;;;;;;6.63;2.00;;;10.50;18.40;;;;;;12852613;23;20198;-87
2023/04/26 16:47:37;;;;;;;10.93;2.77;;;10.60;21.30;;;;;;12849696;23;20212;-87
2023/04/26 16:52:40;;;;;;;4.70;1.77;;;10.30;23.00;;;;;;12849623;23;20823;-87
2023/04/26 16:57:42;;;;;;;6.37;1.80;;;10.20;24.80;;;;;;12852309;23;20530;-87
2023/04/26 17:02:48;;;;;;;7.37;1.87;;;;;;;;;;12850455;23;20171;-87
2023/04/26 17:07:50;;;;;;;5.20;2.10;;;12.00;24.40;;;;;;12850960;23;20187;-87
2023/04/26 17:12:53;;;;;;;5.63;2.07;;;9.90;24.20;;;;;;12853922;23;20202;-88
2023/04/26 17:17:56;;;;;;;4.90;3.00;;;10.10;24.60;;;;;;12856812;23;20242;-87
2023/04/26 17:22:59;;;;;;;6.10;1.67;;;9.90;24.80;;;;;;12854758;23;20514;-87
2023/04/26 17:28:02;;;;;;;8.00;1.43;;;10.70;51.60;;;;;;12852623;23;20179;-87
2023/04/26 17:33:06;;;;;;;2.93;1.50;;;11.90;76.00;;;;;;12853588;23;20218;-87
2023/04/26 17:38:09;;;;;;;5.27;1.13;;;12.30;55.10;;;;;;12851611;23;20507;-87
2023/04/26 17:43:11;;;;;;;5.80;2.50;;;12.80;60.90;;;;;;12851534;23;20175;-87
2023/04/26 17:48:15;;;;;;;5.53;2.50;;;;;;;;;;12850339;23;20180;-87
2023/04/26 17:53:18;;;;;;;3.70;1.60;;;9.80;31.70;;;;;;12853941;23;20173;-87
2023/04/26 17:58:21;;;;;;;2.23;1.47;;;10.50;85.70;;;;;;12853666;23;20237;-87
2023/04/26 18:03:23;;;;;;;4.47;2.10;;;11.40;94.60;;;;;;12853343;23;20565;-86
2023/04/26 18:08:26;;;;;;;2.43;1.23;;;13.30;93.90;;;;;;12855290;23;20189;-87
2023/04/26 18:13:29;;;;;;;10.10;2.03;;;13.30;87.30;;;;;;12854567;23;20179;-88
2023/04/26 18:18:32;;;;;;;4.97;2.43;;;13.50;71.00;;;;;;12854227;23;20238;-87
2023/04/26 18:23:34;;;;;;;3.07;1.97;;;13.80;66.50;;;;;;12855843;23;20665;-87
2023/04/26 18:28:37;;;;;;;3.60;2.00;;;13.40;54.70;;;;;;12855247;23;20171;-87
2023/04/26 18:33:39;;;;;;;6.73;3.07;;;13.00;61.50;;;;;;12854810;23;20223;-86
2023/04/26 18:38:43;;;;;;;6.97;3.73;;;12.90;63.10;;;;;;12867681;23;20198;-87
2023/04/26 18:43:45;;;;;;;5.13;2.80;;;12.60;60.20;;;;;;12854653;23;20673;-87
2023/04/26 18:48:48;;;;;;;6.17;3.97;;;12.10;61.60;;;;;;12851902;23;20234;-88
2023/04/26 18:53:50;;;;;;;3.97;3.17;;;11.80;68.40;;;;;;12854014;23;20194;-87
2023/04/26 18:58:53;;;;;;;4.60;3.10;;;12.00;70.20;;;;;;12853008;23;20631;-87
2023/04/26 19:03:56;;;;;;;6.43;4.33;;;11.80;71.00;;;;;;12853833;23;20844;-87
2023/04/26 19:08:59;;;;;;;7.37;3.47;;;11.60;60.90;;;;;;12852849;23;20179;-88
2023/04/26 19:14:02;;;;;;;4.57;2.83;;;11.20;64.50;;;;;;12854187;23;20518;-88
2023/04/26 19:19:04;;;;;;;5.30;2.87;;;11.20;73.50;;;;;;12850288;23;20182;-87
2023/04/26 19:24:07;;;;;;;6.57;3.83;;;11.20;79.80;;;;;;12850676;23;20246;-87
2023/04/26 19:29:10;;;;;;;6.10;2.70;;;10.90;70.00;;;;;;12848057;23;20202;-87
2023/04/26 19:34:13;;;;;;;7.90;2.87;;;11.00;74.40;;;;;;12848817;23;20210;-87
2023/04/26 19:39:15;;;;;;;3.03;2.00;;;11.00;77.10;;;;;;12850636;23;20293;-88
2023/04/26 19:44:19;;;;;;;7.33;3.07;;;11.40;87.80;;;;;;12848650;23;20616;-89
2023/04/26 19:49:21;;;;;;;7.53;3.50;;;11.00;69.90;;;;;;12850247;23;20238;-87
2023/04/26 19:54:24;;;;;;;6.77;3.63;;;10.90;75.50;;;;;;12855082;23;20238;-88
2023/04/26 19:59:27;;;;;;;6.03;2.90;;;11.20;86.40;;;;;;12853650;23;20167;-87
2023/04/26 20:04:29;;;;;;;6.70;3.40;;;11.50;83.50;;;;;;12852959;23;20175;-88
2023/04/26 20:09:33;;;;;;;7.80;3.57;;;11.80;88.00;;;;;;12851919;23;20194;-88
2023/04/26 20:14:36;;;;;;;7.20;3.40;;;11.80;80.20;;;;;;12852898;23;20202;-88
2023/04/26 20:19:38;;;;;;;6.73;3.47;;;11.50;77.30;;;;;;12852234;23;20240;-88
2023/04/26 20:24:41;;;;;;;6.77;3.43;;;11.10;75.70;;;;;;12852460;23;20178;-88
2023/04/26 20:29:45;;;;;;;4.97;2.90;;;10.70;73.10;;;;;;12853162;23;20186;-87
2023/04/26 20:34:48;;;;;;;4.30;3.30;;;10.60;78.30;;;;;;12852852;23;20187;-88
2023/04/26 20:39:50;;;;;;;11.50;4.07;;;10.60;83.10;;;;;;12852483;23;20207;-88
2023/04/26 20:44:53;;;;;;;5.53;2.83;;;10.30;81.30;;;;;;12853050;23;20573;-87
2023/04/26 20:49:56;;;;;;;5.03;3.37;;;10.30;88.00;;;;;;12856978;23;20187;-88
2023/04/26 20:54:58;;;;;;;11.43;5.13;;;10.20;83.10;;;;;;12857349;23;20191;-88
2023/04/26 21:00:01;;;;;;;9.07;4.87;;;8.70;64.20;;;;;;12854594;23;20229;-88
2023/04/26 21:05:05;;;;;;;6.67;3.63;;;8.40;96.30;;;;;;12857166;23;20175;-88
2023/04/26 21:10:08;;;;;;;6.97;4.27;;;7.60;87.80;;;;;;12854962;23;20237;-90
2023/04/26 21:15:11;;;;;;;13.33;6.93;;;7.20;91.10;;;;;;12855878;23;20594;-89
2023/04/26 21:20:14;;;;;;;10.90;6.03;;;7.10;91.40;;;;;;12856120;23;20183;-89
2023/04/26 21:25:18;;;;;;;18.53;10.20;;;7.00;90.20;;;;;;12854651;23;20642;-89
2023/04/26 21:30:21;;;;;;;14.60;7.23;;;6.90;89.90;;;;;;12854026;23;20263;-89
2023/04/26 21:35:23;;;;;;;10.47;6.13;;;7.00;96.90;;;;;;12854650;23;20190;-89
2023/04/26 21:40:26;;;;;;;12.63;6.53;;;;;;;;;;12856414;23;20236;-89
2023/04/26 21:45:29;;;;;;;7.33;4.90;;;8.40;97.40;;;;;;12856495;23;20171;-89
2023/04/26 21:50:31;;;;;;;5.87;3.70;;;9.20;99.90;;;;;;12856076;23;20202;-88
2023/04/26 21:55:34;;;;;;;8.03;5.23;;;9.90;97.50;;;;;;12855090;23;20539;-89
2023/04/26 22:00:37;;;;;;;15.17;7.17;;;10.40;95.10;;;;;;12855648;23;20183;-90
2023/04/26 22:05:39;;;;;;;8.47;5.93;;;9.80;90.10;;;;;;12856834;23;20186;-90
2023/04/26 22:10:42;;;;;;;6.80;4.77;;;9.50;91.10;;;;;;12857393;23;20167;-91
2023/04/26 22:15:45;;;;;;;11.20;6.43;;;9.50;92.90;;;;;;12854818;23;20540;-90
2023/04/26 22:20:48;;;;;;;8.37;5.57;;;9.40;90.40;;;;;;12857096;23;20179;-91
2023/04/26 22:25:51;;;;;;;11.07;6.43;;;9.40;93.40;;;;;;12856501;23;20210;-90
2023/04/26 22:30:53;;;;;;;11.03;7.03;;;9.10;91.50;;;;;;12854716;23;20183;-90
2023/04/26 22:35:56;;;;;;;15.07;7.53;;;8.80;89.40;;;;;;12859373;23;20249;-91
2023/04/26 22:40:59;;;;;;;8.07;4.83;;;8.80;90.20;;;;;;12860460;23;20530;-91
2023/04/26 22:46:02;;;;;;;12.20;8.10;;;8.70;93.70;;;;;;12863726;23;20545;-91
2023/04/26 22:51:04;;;;;;;19.50;8.30;;;8.40;86.70;;;;;;12858982;23;20214;-91
2023/04/26 22:56:07;;;;;;;6.77;5.40;;;7.70;85.00;;;;;;12859633;23;20513;-91
2023/04/26 23:01:13;;;;;;;10.87;6.83;;;8.00;99.90;;;;;;12858226;23;20566;-91
2023/04/26 23:06:19;;;;;;;5.23;3.80;;;8.20;94.80;;;;;;12860729;23;20582;-91
2023/04/26 23:11:22;;;;;;;6.17;4.27;;;8.40;99.90;;;;;;12860272;23;20216;-91
2023/04/26 23:16:24;;;;;;;8.40;4.63;;;9.00;97.70;;;;;;12855383;23;20195;-90
2023/04/26 23:21:27;;;;;;;11.57;6.10;;;9.60;99.00;;;;;;12856235;23;20167;-90
2023/04/26 23:26:29;;;;;;;4.37;3.50;;;10.20;93.60;;;;;;12857559;23;20522;-91
2023/04/26 23:31:32;;;;;;;9.27;6.00;;;10.30;97.20;;;;;;12874875;23;20168;-91
2023/04/26 23:36:34;;;;;;;12.67;7.30;;;10.00;90.70;;;;;;12868197;23;20179;-90
2023/04/26 23:41:37;;;;;;;7.53;4.20;;;9.30;83.20;;;;;;12856184;23;20265;-90
2023/04/26 23:46:40;;;;;;;9.73;5.20;;;9.20;95.90;;;;;;12856247;23;20179;-90
2023/04/26 23:51:42;;;;;;;6.60;3.23;;;9.20;93.50;;;;;;12857089;23;20245;-90
2023/04/26 23:56:45;;;;;;;11.27;4.57;;;9.70;99.90;;;;;;12858029;23;20187;-90
